ADDS METAR Data INFO
IDs: Format: Raw Decoded Include TAF

Data at: 1045 UTC 19 Oct 2017

KMVN 190959Z AUTO 00000KT 2 1/2SM BR CLR 08/08 A3018 RMK AO2 VIS 3/4V5 PNO $
KMVN 190956Z AUTO 00000KT 1SM BR CLR 07/07 A3018 RMK AO2 VIS 1/2V5 SLP218 T00720072 TSNO PNO $
KMVN 190948Z AUTO 00000KT 1 1/2SM BR CLR 07/07 A3018 RMK AO2 VIS 1/2V5 PNO $
KMVN 190931Z AUTO 00000KT 8SM CLR 08/08 A3018 RMK AO2 PNO $
KMVN 190924Z AUTO 00000KT 2 1/2SM BR CLR 08/08 A3017 RMK AO2 PNO $
KMVN 190910Z AUTO 00000KT 1SM BR CLR 08/08 A3017 RMK AO2 VIS 1/2V4 PNO $
KMVN 190901Z AUTO 00000KT 1 3/4SM BR CLR 07/07 A3017 RMK AO2 VIS 1/2V5 PNO $
KMVN 190856Z AUTO 00000KT 4SM BR CLR 07/07 A3017 RMK AO2 SLP216 6//// T00670067 51006 PNO $
KMVN 190848Z AUTO 00000KT 1 3/4SM BR CLR 07/07 A3017 RMK AO2 VIS 3/4V5 PNO $
KMVN 190756Z AUTO 00000KT 9SM CLR 08/08 A3017 RMK AO2 SLP214 T00780078 PNO $
KMVN 190656Z AUTO 00000KT 10SM CLR 12/09 A3017 RMK AO2 SLP213 T01170089 PNO $
KMVN 190556Z AUTO 00000KT 10SM CLR 11/09 A3016 RMK AO2 SLP210 6//// T01110089 10172 20106 55001 PNO $
KMVN 190456Z AUTO 00000KT 10SM CLR 13/09 A3015 RMK AO2 SLP208 T01280089 402220011 PNO $
KMVN 190356Z AUTO 19003KT 10SM CLR 13/09 A3016 RMK AO2 SLP211 T01330089 PNO $
KMVN 190256Z AUTO 19004KT 10SM CLR 13/09 A3016 RMK AO2 SLP211 6//// T01330089 51002 PNO $
KMVN 190156Z AUTO 22005KT 10SM CLR 14/08 A3015 RMK AO2 SLP210 T01390083 PNO $
KMVN 190056Z AUTO 22004KT 10SM CLR 14/08 A3017 RMK AO2 SLP217 T01440083 PNO $
KMVN 182356Z AUTO 17007KT 10SM CLR 17/08 A3015 RMK AO2 SLP210 6//// T01670083 10222 20167 53000 PNO $
KMVN 182256Z AUTO 18007KT 10SM CLR 19/09 A3015 RMK AO2 SLP209 T01890089 PNO $
KMVN 182156Z AUTO 19010KT 10SM CLR 21/09 A3015 RMK AO2 SLP209 T02110094 PNO $
KMVN 182056Z AUTO 19014KT 10SM CLR 22/09 A3015 RMK AO2 SLP210 6//// T02170094 56018 PNO $
KMVN 181956Z AUTO 21012KT 10SM CLR 22/10 A3016 RMK AO2 SLP213 T02170100 PNO $
KMVN 181856Z AUTO 21014KT 10SM CLR 21/09 A3018 RMK AO2 SLP220 T02110094 PNO $
KMVN 181756Z AUTO 18013KT 10SM CLR 21/10 A3021 RMK AO2 SLP228 6//// T02060100 10206 20017 58021 PNO $
KMVN 181656Z AUTO 22011KT 10SM CLR 19/10 A3024 RMK AO2 SLP240 T01940100 PNO $
KMVN 181556Z AUTO 20010KT 10SM CLR 18/10 A3026 RMK AO2 SLP248 T01780100 PNO $
KMVN 181456Z AUTO 21009KT 10SM CLR 14/09 A3027 RMK AO2 SLP251 6//// T01440089 51007 PNO $
KMVN 181356Z AUTO 21003KT 10SM CLR 11/09 A3027 RMK AO2 SLP250 T01060089 PNO $
KMVN 181256Z AUTO 00000KT 9SM CLR 04/04 A3026 RMK AO2 SLP247 T00440044 PNO $
KMVN 181156Z AUTO 00000KT 6SM BR CLR 02/02 A3025 RMK AO2 SLP245 6//// 7//// T00170017 10044 20011 51007 FZRANO PNO $
KMVN 181056Z AUTO 00000KT 6SM BR CLR 01/01 A3025 RMK AO2 SLP243 T00110011 FZRANO PNO $
KMVN 180956Z AUTO 00000KT 6SM BR CLR 02/02 A3023 RMK AO2 SLP238 T00220022 FZRANO PNO $
KMVN 180856Z AUTO 00000KT 6SM BR CLR 02/02 A3023 RMK AO2 SLP236 6//// T00220022 58002 FZRANO PNO $
KMVN 180835Z AUTO 00000KT 2 1/2SM BR CLR 02/02 A3023 RMK AO2 FZRANO PNO $
KMVN 180756Z AUTO 00000KT 6SM BR CLR 02/02 A3023 RMK AO2 SLP237 T00220022 FZRANO PNO $
KMVN 180656Z AUTO 00000KT 6SM BR CLR 03/03 A3023 RMK AO2 SLP238 T00330028 PNO $
KMVN 180556Z AUTO 00000KT 5SM BR CLR 03/03 A3023 RMK AO2 SLP238 6//// T00330033 10122 20033 58005 PNO $
KMVN 180456Z AUTO 00000KT 10SM CLR 06/06 A3024 RMK AO2 SLP242 T00560056 402060017 PNO $
KMVN 180356Z AUTO 00000KT 7SM CLR 04/04 A3025 RMK AO2 SLP243 T00390039 PNO $
KMVN 180256Z AUTO 00000KT 10SM CLR 05/05 A3025 RMK AO2 SLP242 6//// T00500050 53006 PNO $
KMVN 180156Z AUTO 00000KT 10SM CLR 07/06 A3023 RMK AO2 SLP238 T00670061 PNO $
KMVN 180056Z AUTO 00000KT 10SM CLR 11/07 A3023 RMK AO2 SLP240 T01060067 PNO $
KMVN 172356Z AUTO 00000KT 10SM CLR 11/07 A3023 RMK AO2 SLP238 6//// T01110072 10206 20106 55004 PNO $
KMVN 172256Z AUTO 20004KT 10SM CLR 16/07 A3022 RMK AO2 SLP235 T01560072 PNO $